createdAt,value
2023-04-02T00:01:55.527Z,6.60
2023-04-02T00:06:45.926Z,6.60
2023-04-02T00:10:51.769Z,6.60
2023-04-02T00:14:58.350Z,6.60
2023-04-02T00:19:09.014Z,6.60
2023-04-02T00:23:14.375Z,6.60
2023-04-02T00:27:18.201Z,6.60
2023-04-02T00:31:31.376Z,6.60
2023-04-02T00:35:39.759Z,6.60
2023-04-02T00:39:54.680Z,6.60
2023-04-02T00:45:17.725Z,6.60
2023-04-02T00:49:32.932Z,6.60
2023-04-02T00:53:37.713Z,6.50
2023-04-02T00:57:45.114Z,6.50
2023-04-02T01:02:02.008Z,6.50
2023-04-02T01:06:12.754Z,6.50
2023-04-02T01:11:10.855Z,6.50
2023-04-02T01:15:30.601Z,6.50
2023-04-02T01:20:01.104Z,6.40
2023-04-02T01:24:08.817Z,6.40
2023-04-02T01:28:29.244Z,6.40
2023-04-02T01:32:35.244Z,6.40
2023-04-02T01:37:02.189Z,6.40
2023-04-02T01:41:17.362Z,6.40
2023-04-02T01:45:23.140Z,6.40
2023-04-02T01:49:28.638Z,6.40
2023-04-02T01:53:57.835Z,6.40
2023-04-02T01:58:02.513Z,6.40
2023-04-02T02:06:46.464Z,6.30
2023-04-02T02:10:50.875Z,6.30
2023-04-02T02:14:54.577Z,6.30
2023-04-02T02:19:03.979Z,6.30
2023-04-02T02:23:09.952Z,6.30
2023-04-02T02:27:49.529Z,6.30
2023-04-02T02:32:19.331Z,6.30
2023-04-02T02:36:46.788Z,6.30
2023-04-02T02:45:35.490Z,6.30
2023-04-02T02:49:42.225Z,6.30
2023-04-02T02:53:49.695Z,6.30
2023-04-02T02:58:23.627Z,6.30
2023-04-02T03:02:50.149Z,6.30
2023-04-02T03:07:25.731Z,6.30
2023-04-02T03:11:38.438Z,6.30
2023-04-02T03:16:11.621Z,6.20
2023-04-02T03:20:26.073Z,6.30
2023-04-02T03:28:58.640Z,6.30
2023-04-02T03:33:07.771Z,6.30
2023-04-02T03:37:28.292Z,6.30
2023-04-02T03:41:41.860Z,6.20
2023-04-02T03:45:49.392Z,6.20
2023-04-02T03:49:59.179Z,6.20
2023-04-02T03:54:03.563Z,6.20
2023-04-02T03:58:14.522Z,6.20
2023-04-02T04:02:36.467Z,6.20
2023-04-02T04:12:34.759Z,6.20
2023-04-02T04:16:47.689Z,6.20
2023-04-02T04:20:56.815Z,6.10
2023-04-02T04:25:29.830Z,6.10
2023-04-02T04:29:49.309Z,6.20
2023-04-02T04:34:04.213Z,6.20
2023-04-02T04:38:18.587Z,6.10
2023-04-02T04:42:24.563Z,6.10
2023-04-02T04:46:34.498Z,6.10
2023-04-02T04:50:42.476Z,6.10
2023-04-02T04:54:47.941Z,6.10
2023-04-02T04:59:07.413Z,6.10
2023-04-02T05:03:38.459Z,6.10
2023-04-02T05:07:49.287Z,6.20
2023-04-02T05:12:23.196Z,6.20
2023-04-02T05:20:58.156Z,6.20
2023-04-02T05:25:21.365Z,6.20
2023-04-02T05:29:32.154Z,6.30
2023-04-02T05:33:37.372Z,6.30
2023-04-02T05:37:47.601Z,6.30
2023-04-02T05:42:04.005Z,6.30
2023-04-02T05:46:37.261Z,6.40
2023-04-02T05:50:46.220Z,6.50
2023-04-02T05:55:01.386Z,6.60
2023-04-02T05:59:27.155Z,6.70
2023-04-02T06:03:46.552Z,6.70
2023-04-02T06:07:58.522Z,6.70
2023-04-02T06:12:12.221Z,6.70
2023-04-02T06:16:18.278Z,6.70
2023-04-02T06:20:22.684Z,6.80
2023-04-02T06:24:32.261Z,6.90
2023-04-02T06:28:58.335Z,7.00
2023-04-02T06:33:29.204Z,7.10
2023-04-02T06:37:43.157Z,7.20
2023-04-02T06:41:58.491Z,7.30
2023-04-02T06:46:46.993Z,7.50
2023-04-02T06:50:57.748Z,7.50
2023-04-02T06:55:02.348Z,7.50
2023-04-02T06:59:07.663Z,7.60
2023-04-02T07:03:23.013Z,7.70
2023-04-02T07:08:22.005Z,7.60
2023-04-02T07:12:26.262Z,7.60
2023-04-02T07:16:32.768Z,7.50
2023-04-02T07:20:41.817Z,7.30
2023-04-02T07:24:49.502Z,7.20
2023-04-02T07:28:53.590Z,7.10
2023-04-02T07:33:23.358Z,7.10
2023-04-02T07:37:38.612Z,7.10
2023-04-02T07:42:05.030Z,7.10
2023-04-02T07:46:10.963Z,7.00
2023-04-02T07:50:14.890Z,7.00
2023-04-02T07:54:22.196Z,6.90
2023-04-02T07:58:25.728Z,7.00
2023-04-02T08:02:29.413Z,6.90
2023-04-02T08:06:33.279Z,7.00
2023-04-02T08:10:40.429Z,7.10
2023-04-02T08:14:44.029Z,7.20
2023-04-02T08:18:48.017Z,7.30
2023-04-02T08:22:52.640Z,7.40
2023-04-02T08:26:58.016Z,7.50
2023-04-02T08:31:01.713Z,7.60
2023-04-02T08:35:30.526Z,7.90
2023-04-02T08:39:35.420Z,7.90
2023-04-02T08:43:57.910Z,7.80
2023-04-02T08:48:03.568Z,7.80
2023-04-02T08:52:07.420Z,8.00
2023-04-02T08:56:35.156Z,8.00
2023-04-02T09:00:43.108Z,8.10
2023-04-02T09:04:46.772Z,8.20
2023-04-02T09:08:52.696Z,7.80
2023-04-02T09:12:58.750Z,7.70
2023-04-02T09:17:23.833Z,7.80
2023-04-02T09:21:39.628Z,7.70
2023-04-02T09:25:57.335Z,7.70
2023-04-02T09:30:25.760Z,7.60
2023-04-02T09:34:32.091Z,7.60
2023-04-02T09:38:35.771Z,7.70
2023-04-02T09:42:48.514Z,7.70
2023-04-02T09:46:59.870Z,7.80
2023-04-02T09:51:36.723Z,8.40
2023-04-02T09:55:40.397Z,8.90
2023-04-02T09:59:44.117Z,9.30
2023-04-02T10:04:44.485Z,9.60
2023-04-02T10:08:49.920Z,9.40
2023-04-02T10:13:10.855Z,9.00
2023-04-02T10:17:19.154Z,8.80
2023-04-02T10:21:36.306Z,8.70
2023-04-02T10:25:59.261Z,8.70
2023-04-02T10:30:22.702Z,8.60
2023-04-02T10:34:31.217Z,9.10
2023-04-02T10:38:52.666Z,9.40
2023-04-02T10:43:45.519Z,9.70
2023-04-02T10:52:35.139Z,9.50
2023-04-02T10:56:48.289Z,9.40
2023-04-02T11:01:01.238Z,9.40
2023-04-02T11:05:23.855Z,9.30
2023-04-02T11:09:38.194Z,8.80
2023-04-02T11:13:51.960Z,8.20
2023-04-02T11:17:57.358Z,7.90
2023-04-02T11:22:05.196Z,7.70
2023-04-02T11:26:33.868Z,7.80
2023-04-02T11:30:37.802Z,7.30
2023-04-02T11:35:14.952Z,7.30
2023-04-02T11:39:59.770Z,7.40
2023-04-02T11:44:03.396Z,7.20
2023-04-02T11:48:29.484Z,7.00
2023-04-02T11:52:38.056Z,7.00
2023-04-02T11:57:47.239Z,6.90
2023-04-02T12:02:08.244Z,6.90
2023-04-02T12:06:27.855Z,6.70
2023-04-02T12:10:35.076Z,6.50
2023-04-02T12:14:48.418Z,6.40
2023-04-02T12:18:55.127Z,6.30
2023-04-02T12:22:59.889Z,5.90
2023-04-02T12:27:15.743Z,5.70
2023-04-02T12:31:26.225Z,5.70
2023-04-02T12:35:32.699Z,5.70
2023-04-02T12:39:37.563Z,5.70
2023-04-02T12:43:58.437Z,5.70
2023-04-02T12:52:29.919Z,5.20
2023-04-02T12:56:33.641Z,5.20
2023-04-02T13:00:38.121Z,5.20
2023-04-02T13:05:10.355Z,5.30
2023-04-02T13:09:42.976Z,5.20
2023-04-02T13:14:34.549Z,5.30
2023-04-02T13:18:39.520Z,5.30
2023-04-02T13:22:44.702Z,5.30
2023-04-02T13:27:11.595Z,5.40
2023-04-02T13:31:18.070Z,5.30
2023-04-02T13:35:22.688Z,5.20
2023-04-02T13:39:30.479Z,5.10
2023-04-02T13:43:34.049Z,5.00
2023-04-02T13:47:39.774Z,5.10
2023-04-02T13:51:46.973Z,5.00
2023-04-02T13:55:52.843Z,5.00
2023-04-02T13:59:56.362Z,5.10
2023-04-02T14:04:51.155Z,4.90
2023-04-02T14:09:05.482Z,5.00
2023-04-02T14:13:31.293Z,5.00
2023-04-02T14:18:01.665Z,5.10
2023-04-02T14:22:29.773Z,5.20
2023-04-02T14:26:44.194Z,5.20
2023-04-02T14:30:55.206Z,4.90
2023-04-02T14:35:25.137Z,4.80
2023-04-02T14:39:40.645Z,4.80
2023-04-02T14:43:59.189Z,4.50
2023-04-02T14:52:55.790Z,4.60
2023-04-02T14:57:08.390Z,4.60
2023-04-02T15:01:15.881Z,4.50
2023-04-02T15:05:28.408Z,4.50
2023-04-02T15:09:35.618Z,4.50
2023-04-02T15:13:44.064Z,4.60
2023-04-02T15:18:11.052Z,4.70
2023-04-02T15:22:34.492Z,4.80
2023-04-02T15:27:07.117Z,4.80
2023-04-02T15:31:17.072Z,4.90
2023-04-02T15:35:46.412Z,5.00
2023-04-02T15:40:15.921Z,4.90
2023-04-02T15:44:19.772Z,4.80
2023-04-02T15:48:52.972Z,4.90
2023-04-02T15:53:18.749Z,4.90
2023-04-02T15:57:49.171Z,4.60
2023-04-02T16:01:59.708Z,4.70
2023-04-02T16:06:29.105Z,4.70
2023-04-02T16:10:42.396Z,4.60
2023-04-02T16:14:50.798Z,4.50
2023-04-02T16:19:22.899Z,4.40
2023-04-02T16:23:46.866Z,4.30
2023-04-02T16:27:59.135Z,4.00
2023-04-02T16:32:28.145Z,3.80
2023-04-02T16:42:26.481Z,3.70
2023-04-02T16:46:55.136Z,3.50
2023-04-02T16:51:11.202Z,3.60
2023-04-02T16:55:30.681Z,3.30
2023-04-02T16:59:49.885Z,3.40
2023-04-02T17:04:22.077Z,3.20
2023-04-02T17:08:28.903Z,3.20
2023-04-02T17:12:44.832Z,3.10
2023-04-02T17:16:54.247Z,3.00
2023-04-02T17:21:02.266Z,2.90
2023-04-02T17:25:17.138Z,2.90
2023-04-02T17:29:25.506Z,2.90
2023-04-02T17:33:29.232Z,2.70
2023-04-02T17:37:36.508Z,2.70
2023-04-02T17:41:49.197Z,2.50
2023-04-02T17:45:54.246Z,2.50
2023-04-02T17:50:23.140Z,2.60
2023-04-02T17:54:44.838Z,2.40
2023-04-02T17:59:21.912Z,2.50
2023-04-02T18:03:44.232Z,2.30
2023-04-02T18:07:58.067Z,2.20
2023-04-02T18:12:12.294Z,2.10
2023-04-02T18:16:37.630Z,2.10
2023-04-02T18:20:45.965Z,2.00
2023-04-02T18:25:28.896Z,1.90
2023-04-02T18:29:41.374Z,2.00
2023-04-02T18:34:29.976Z,1.90
2023-04-02T18:38:49.874Z,1.70
2023-04-02T18:43:15.293Z,1.80
2023-04-02T18:47:26.018Z,1.70
2023-04-02T18:51:37.047Z,1.70
2023-04-02T18:55:44.443Z,1.60
2023-04-02T18:59:52.926Z,1.80
2023-04-02T19:04:43.291Z,1.60
2023-04-02T19:08:51.715Z,1.50
2023-04-02T19:13:16.751Z,1.50
2023-04-02T19:17:32.860Z,1.50
2023-04-02T19:22:01.255Z,1.30
2023-04-02T19:26:10.086Z,1.30
2023-04-02T19:30:44.189Z,1.10
2023-04-02T19:40:05.342Z,1.00
2023-04-02T19:44:13.398Z,0.90
2023-04-02T19:48:20.379Z,0.90
2023-04-02T19:52:30.335Z,0.80
2023-04-02T19:56:33.848Z,1.00
2023-04-02T20:00:39.101Z,0.60
2023-04-02T20:04:46.774Z,0.80
2023-04-02T20:08:50.347Z,0.70
2023-04-02T20:12:54.102Z,0.70
2023-04-02T20:17:01.679Z,0.70
2023-04-02T20:21:06.629Z,0.50
2023-04-02T20:25:10.858Z,0.60
2023-04-02T20:29:41.372Z,0.60
2023-04-02T20:33:46.877Z,0.50
2023-04-02T20:37:50.405Z,0.50
2023-04-02T20:41:53.903Z,0.50
2023-04-02T20:46:23.143Z,0.50
2023-04-02T20:50:33.522Z,0.40
2023-04-02T20:54:37.080Z,0.40
2023-04-02T20:58:41.185Z,0.50
2023-04-02T21:02:45.996Z,0.40
2023-04-02T21:07:16.859Z,0.50
2023-04-02T21:11:45.610Z,0.60
2023-04-02T21:15:49.091Z,0.70
2023-04-02T21:19:52.556Z,0.80
2023-04-02T21:24:11.455Z,0.80
2023-04-02T21:28:14.928Z,0.80
2023-04-02T21:32:21.234Z,0.80
2023-04-02T21:36:51.418Z,0.80
2023-04-02T21:41:24.841Z,0.80
2023-04-02T21:45:53.106Z,0.70
2023-04-02T21:50:19.321Z,0.60
2023-04-02T21:54:22.913Z,0.60
2023-04-02T21:58:27.863Z,0.70
2023-04-02T22:02:31.781Z,0.60
2023-04-02T22:07:01.208Z,0.60
2023-04-02T22:11:07.246Z,0.70
2023-04-02T22:15:13.234Z,0.70
2023-04-02T22:19:18.216Z,0.70
2023-04-02T22:23:30.636Z,0.60
2023-04-02T22:27:34.104Z,0.60
2023-04-02T22:31:39.358Z,0.60
2023-04-02T22:36:08.255Z,0.70
2023-04-02T22:40:30.856Z,0.60
2023-04-02T22:44:34.395Z,0.60
2023-04-02T22:48:40.104Z,0.70
2023-04-02T22:52:43.757Z,0.70
2023-04-02T22:56:47.300Z,0.60
2023-04-02T23:00:50.797Z,0.50
2023-04-02T23:04:58.009Z,0.50
2023-04-02T23:09:01.642Z,0.40
2023-04-02T23:13:05.171Z,0.30
2023-04-02T23:17:35.994Z,0.30
2023-04-02T23:21:41.155Z,0.40
2023-04-02T23:25:44.597Z,0.40
2023-04-02T23:29:48.232Z,0.40
2023-04-02T23:33:54.017Z,0.40
2023-04-02T23:37:58.984Z,0.50
2023-04-02T23:42:02.621Z,0.30
2023-04-02T23:46:06.526Z,0.20
2023-04-02T23:50:11.058Z,0.20
2023-04-02T23:54:16.761Z,0.20
2023-04-02T23:58:45.405Z,0.30
